createdAt,value
2018-07-25T00:00:13.120Z,25.56
2018-07-25T00:01:13.122Z,25.44
2018-07-25T00:02:13.126Z,25.48
2018-07-25T00:03:13.131Z,25.45
2018-07-25T00:04:13.135Z,25.44
2018-07-25T00:05:13.133Z,25.48
2018-07-25T00:06:13.134Z,25.48
2018-07-25T00:07:13.144Z,25.49
2018-07-25T00:08:13.145Z,25.48
2018-07-25T00:09:13.147Z,25.48
2018-07-25T00:10:13.148Z,25.46
2018-07-25T00:11:13.145Z,25.39
2018-07-25T00:12:13.147Z,25.44
2018-07-25T00:13:13.150Z,25.39
2018-07-25T00:14:13.153Z,25.45
2018-07-25T00:15:13.158Z,25.35
2018-07-25T00:16:13.161Z,25.35
2018-07-25T00:17:13.165Z,25.38
2018-07-25T00:18:13.167Z,25.38
2018-07-25T00:19:13.168Z,25.29
2018-07-25T00:20:13.166Z,25.36
2018-07-25T00:21:13.174Z,25.36
2018-07-25T00:22:13.174Z,25.31
2018-07-25T00:23:13.174Z,25.35
2018-07-25T00:24:13.175Z,25.35
2018-07-25T00:25:13.192Z,25.31
2018-07-25T00:26:13.179Z,25.34
2018-07-25T00:27:13.185Z,25.26
2018-07-25T00:28:13.188Z,25.34
2018-07-25T00:29:13.191Z,25.27
2018-07-25T00:30:13.193Z,25.29
2018-07-25T00:31:13.190Z,25.30
2018-07-25T00:32:13.192Z,25.27
2018-07-25T00:33:13.198Z,25.31
2018-07-25T00:34:13.198Z,25.27
2018-07-25T00:35:13.207Z,25.23
2018-07-25T00:36:13.251Z,25.27
2018-07-25T00:37:13.204Z,25.20
2018-07-25T00:38:13.205Z,25.19
2018-07-25T00:39:13.213Z,25.09
2018-07-25T00:40:13.216Z,25.02
2018-07-25T00:41:13.223Z,25.02
2018-07-25T00:42:13.218Z,24.97
2018-07-25T00:43:13.219Z,24.98
2018-07-25T00:44:13.220Z,25.05
2018-07-25T00:45:13.225Z,24.90
2018-07-25T00:46:13.222Z,24.98
2018-07-25T00:47:13.231Z,24.87
2018-07-25T00:48:13.233Z,24.92
2018-07-25T00:49:13.234Z,24.97
2018-07-25T00:50:13.236Z,24.86
2018-07-25T00:51:13.237Z,24.92
2018-07-25T00:52:13.237Z,24.94
2018-07-25T00:53:13.242Z,24.90
2018-07-25T00:54:13.243Z,24.87
2018-07-25T00:55:13.241Z,24.92
2018-07-25T00:56:13.247Z,24.84
2018-07-25T00:57:13.246Z,24.84
2018-07-25T00:58:13.247Z,24.94
2018-07-25T00:59:13.256Z,24.82
2018-07-25T01:00:13.258Z,24.92
2018-07-25T01:01:13.260Z,24.94
2018-07-25T01:02:13.261Z,24.86
2018-07-25T01:03:13.258Z,24.83
2018-07-25T01:04:13.260Z,24.86
2018-07-25T01:05:13.263Z,24.82
2018-07-25T01:06:13.263Z,24.80
2018-07-25T01:07:13.271Z,24.71
2018-07-25T01:08:13.273Z,24.82
2018-07-25T01:09:13.271Z,24.70
2018-07-25T01:10:13.272Z,24.82
2018-07-25T01:11:13.278Z,24.71
2018-07-25T01:12:13.280Z,24.71
2018-07-25T01:13:13.283Z,24.79
2018-07-25T01:14:13.283Z,24.74
2018-07-25T01:15:13.282Z,24.74
2018-07-25T01:16:13.285Z,24.74
2018-07-25T01:17:13.285Z,24.74
2018-07-25T01:18:13.287Z,24.74
2018-07-25T01:19:13.297Z,24.70
2018-07-25T01:20:13.296Z,24.77
2018-07-25T01:21:13.297Z,24.77
2018-07-25T01:22:13.298Z,24.75
2018-07-25T01:23:13.297Z,24.77
2018-07-25T01:24:13.299Z,24.79
2018-07-25T01:25:13.305Z,24.71
2018-07-25T01:26:13.306Z,24.71
2018-07-25T01:27:13.305Z,24.66
2018-07-25T01:28:13.306Z,24.60
2018-07-25T01:29:13.309Z,24.66
2018-07-25T01:30:13.312Z,24.55
2018-07-25T01:31:13.317Z,24.60
2018-07-25T01:32:13.320Z,24.59
2018-07-25T01:33:13.320Z,24.59
2018-07-25T01:34:13.321Z,24.59
2018-07-25T01:35:13.318Z,24.53
2018-07-25T01:36:13.321Z,24.55
2018-07-25T01:37:13.324Z,24.53
2018-07-25T01:38:13.324Z,24.59
2018-07-25T01:39:13.332Z,24.60
2018-07-25T01:40:13.333Z,24.56
2018-07-25T01:41:13.331Z,24.60
2018-07-25T01:42:13.331Z,24.59
2018-07-25T01:43:13.337Z,24.51
2018-07-25T01:44:13.341Z,24.45
2018-07-25T01:45:13.374Z,24.45
2018-07-25T01:46:13.342Z,24.41
2018-07-25T01:47:13.340Z,24.39
2018-07-25T01:48:13.342Z,24.42
2018-07-25T01:49:13.345Z,24.36
2018-07-25T01:50:13.345Z,24.36
2018-07-25T01:51:13.351Z,24.33
2018-07-25T01:52:13.356Z,24.31
2018-07-25T01:53:13.356Z,24.33
2018-07-25T01:54:13.357Z,24.30
2018-07-25T01:55:13.354Z,24.33
2018-07-25T01:56:13.356Z,24.31
2018-07-25T01:57:13.363Z,24.34
2018-07-25T01:58:13.364Z,24.29
2018-07-25T01:59:13.361Z,24.30
2018-07-25T02:00:13.362Z,24.27
2018-07-25T02:01:13.368Z,24.27
2018-07-25T02:02:13.365Z,24.30
2018-07-25T02:03:13.371Z,24.21
2018-07-25T02:04:13.373Z,24.26
2018-07-25T02:05:13.375Z,24.23
2018-07-25T02:06:13.375Z,24.21
2018-07-25T02:07:13.373Z,24.23
2018-07-25T02:08:13.439Z,24.23
2018-07-25T02:09:13.378Z,24.24
2018-07-25T02:10:13.381Z,24.16
2018-07-25T02:11:13.385Z,24.15
2018-07-25T02:12:13.387Z,24.19
2018-07-25T02:13:13.385Z,24.23
2018-07-25T02:14:13.384Z,24.12
2018-07-25T02:15:13.390Z,24.19
2018-07-25T02:16:13.394Z,24.11
2018-07-25T02:17:13.396Z,24.11
2018-07-25T02:18:13.394Z,24.08
2018-07-25T02:19:13.392Z,24.02
2018-07-25T02:20:13.394Z,23.97
2018-07-25T02:21:13.397Z,23.97
2018-07-25T02:22:13.395Z,23.97
2018-07-25T02:23:13.405Z,24.12
2018-07-25T02:24:13.405Z,24.04
2018-07-25T02:25:13.407Z,24.00
2018-07-25T02:26:13.407Z,23.96
2018-07-25T02:27:13.405Z,24.05
2018-07-25T02:28:13.405Z,24.06
2018-07-25T02:29:13.412Z,23.97
2018-07-25T02:30:13.413Z,24.04
2018-07-25T02:31:13.409Z,23.99
2018-07-25T02:32:13.412Z,23.99
2018-07-25T02:33:13.414Z,23.99
2018-07-25T02:34:13.418Z,23.96
2018-07-25T02:35:13.419Z,23.96
2018-07-25T02:36:13.421Z,24.00
2018-07-25T02:37:13.423Z,23.97
2018-07-25T02:38:13.424Z,23.90
2018-07-25T02:39:13.424Z,23.87
2018-07-25T02:40:13.423Z,23.82
2018-07-25T02:41:13.424Z,23.86
2018-07-25T02:42:13.424Z,23.84
2018-07-25T02:43:13.431Z,23.82
2018-07-25T02:44:13.437Z,23.77
2018-07-25T02:45:13.430Z,23.71
2018-07-25T02:46:13.430Z,23.71
2018-07-25T02:47:13.439Z,23.68
2018-07-25T02:48:13.443Z,23.74
2018-07-25T02:49:13.444Z,23.57
2018-07-25T02:50:13.443Z,23.59
2018-07-25T02:51:13.437Z,23.56
2018-07-25T02:52:13.440Z,23.50
2018-07-25T02:53:13.441Z,23.42
2018-07-25T02:54:13.441Z,23.52
2018-07-25T02:55:13.446Z,23.41
2018-07-25T02:56:13.449Z,23.29
2018-07-25T02:57:13.449Z,23.31
2018-07-25T02:58:13.450Z,23.26
2018-07-25T02:59:13.446Z,23.31
2018-07-25T03:00:13.449Z,23.22
2018-07-25T03:01:13.455Z,23.25
2018-07-25T03:02:13.455Z,23.22
2018-07-25T03:03:13.454Z,23.31
2018-07-25T03:04:13.454Z,23.32
2018-07-25T03:05:13.454Z,23.26
2018-07-25T03:06:13.458Z,23.26
2018-07-25T03:07:13.466Z,23.26
2018-07-25T03:08:13.463Z,23.22
2018-07-25T03:09:13.463Z,23.19
2018-07-25T03:10:13.465Z,23.21
2018-07-25T03:11:13.461Z,23.21
2018-07-25T03:12:13.463Z,23.23
2018-07-25T03:13:13.463Z,23.21
2018-07-25T03:14:13.464Z,23.18
2018-07-25T03:15:13.470Z,23.15
2018-07-25T03:16:13.471Z,23.19
2018-07-25T03:17:13.467Z,23.21
2018-07-25T03:18:13.468Z,23.18
2018-07-25T03:19:13.475Z,23.14
2018-07-25T03:20:13.477Z,23.14
2018-07-25T03:21:13.479Z,23.16
2018-07-25T03:22:13.478Z,23.16
2018-07-25T03:23:13.474Z,23.14
2018-07-25T03:24:13.474Z,23.06
2018-07-25T03:25:13.476Z,23.06
2018-07-25T03:26:13.476Z,22.96
2018-07-25T03:27:13.482Z,22.94
2018-07-25T03:28:13.483Z,22.94
2018-07-25T03:29:13.485Z,22.96
2018-07-25T03:30:13.483Z,22.93
2018-07-25T03:31:13.528Z,22.91
2018-07-25T03:32:13.481Z,22.96
2018-07-25T03:33:13.487Z,22.91
2018-07-25T03:34:13.487Z,22.97
2018-07-25T03:35:13.483Z,22.85
2018-07-25T03:36:13.484Z,22.85
2018-07-25T03:37:13.486Z,22.84
2018-07-25T03:38:13.487Z,22.88
2018-07-25T03:39:13.492Z,22.82
2018-07-25T03:40:13.493Z,22.86
2018-07-25T03:41:13.493Z,22.84
2018-07-25T03:42:13.493Z,22.78
2018-07-25T03:43:13.492Z,22.82
2018-07-25T03:44:13.491Z,22.72
2018-07-25T03:45:13.492Z,22.72
2018-07-25T03:46:13.491Z,22.75
2018-07-25T03:47:13.498Z,22.60
2018-07-25T03:48:13.498Z,22.69
2018-07-25T03:49:13.496Z,22.64
2018-07-25T03:50:13.495Z,22.61
2018-07-25T03:51:13.502Z,22.51
2018-07-25T03:52:13.503Z,22.63
2018-07-25T03:53:13.502Z,22.60
2018-07-25T03:54:13.502Z,22.59
2018-07-25T03:55:13.498Z,22.57
2018-07-25T03:56:13.500Z,22.66
2018-07-25T03:57:13.505Z,22.64
2018-07-25T03:58:13.501Z,22.59
2018-07-25T03:59:13.506Z,22.69
2018-07-25T04:00:13.508Z,22.70
2018-07-25T04:01:13.511Z,22.63
2018-07-25T04:02:13.509Z,22.57
2018-07-25T04:03:13.506Z,22.60
2018-07-25T04:04:13.507Z,22.64
2018-07-25T04:05:13.513Z,22.57
2018-07-25T04:06:13.515Z,22.63
2018-07-25T04:07:13.509Z,22.66
2018-07-25T04:08:13.566Z,22.61
2018-07-25T04:09:13.566Z,22.64
2018-07-25T04:10:13.510Z,22.61
2018-07-25T04:11:13.515Z,22.61
2018-07-25T04:12:13.517Z,22.59
2018-07-25T04:13:13.523Z,22.64
2018-07-25T04:14:13.518Z,22.64
2018-07-25T04:15:13.516Z,22.60
2018-07-25T04:16:13.515Z,22.70
2018-07-25T04:17:13.518Z,22.59
2018-07-25T04:18:13.518Z,22.59
2018-07-25T04:19:13.525Z,22.63
2018-07-25T04:20:13.524Z,22.66
2018-07-25T04:21:13.520Z,22.61
2018-07-25T04:22:13.521Z,22.67
2018-07-25T04:23:13.526Z,22.81
2018-07-25T04:24:13.527Z,22.67
2018-07-25T04:25:13.530Z,22.64
2018-07-25T04:26:13.526Z,22.79
2018-07-25T04:27:13.524Z,22.74
2018-07-25T04:28:13.525Z,22.82
2018-07-25T04:29:13.526Z,22.78
2018-07-25T04:30:13.527Z,22.86
2018-07-25T04:31:13.531Z,22.81
2018-07-25T04:32:13.532Z,22.84
2018-07-25T04:33:13.534Z,22.82
2018-07-25T04:34:13.538Z,22.76
2018-07-25T04:35:13.535Z,22.63
2018-07-25T04:36:13.531Z,22.75
2018-07-25T04:37:13.538Z,22.69
2018-07-25T04:38:13.541Z,22.74
2018-07-25T04:39:13.537Z,22.64
2018-07-25T04:40:13.535Z,22.63
2018-07-25T04:41:13.536Z,22.66
2018-07-25T04:42:13.537Z,22.76
2018-07-25T04:43:13.542Z,22.84
2018-07-25T04:44:13.543Z,22.88
2018-07-25T04:45:13.545Z,22.96
2018-07-25T04:46:13.570Z,22.85
2018-07-25T04:47:13.541Z,22.94
2018-07-25T04:48:13.543Z,23.03
2018-07-25T04:49:13.544Z,23.14
2018-07-25T04:50:13.544Z,23.12
2018-07-25T04:51:13.554Z,23.18
2018-07-25T04:52:13.552Z,23.32
2018-07-25T04:53:13.551Z,23.34
2018-07-25T04:54:13.549Z,23.49
2018-07-25T04:55:13.556Z,23.49
2018-07-25T04:56:13.634Z,23.57
2018-07-25T04:57:13.558Z,23.68
2018-07-25T04:58:13.564Z,23.78
2018-07-25T04:59:13.557Z,23.93
2018-07-25T05:00:13.559Z,23.90
2018-07-25T05:01:13.561Z,24.05
2018-07-25T05:02:13.563Z,24.19
2018-07-25T05:03:13.571Z,24.21
2018-07-25T05:04:13.572Z,24.39
2018-07-25T05:05:13.576Z,24.61
2018-07-25T05:06:13.575Z,24.67
2018-07-25T05:07:13.632Z,24.98
2018-07-25T05:08:13.578Z,25.11
2018-07-25T05:09:13.584Z,25.49
2018-07-25T05:10:13.586Z,25.82
2018-07-25T05:11:13.585Z,26.27
2018-07-25T05:12:13.590Z,26.64
2018-07-25T05:13:13.593Z,26.88
2018-07-25T05:14:13.596Z,27.21
2018-07-25T05:15:13.604Z,27.52
2018-07-25T05:16:13.609Z,27.91
2018-07-25T05:17:13.612Z,28.20
2018-07-25T05:18:13.616Z,28.64
2018-07-25T05:19:13.615Z,28.89
2018-07-25T05:20:13.623Z,29.26
2018-07-25T05:21:13.624Z,29.47
2018-07-25T05:22:13.627Z,29.73
2018-07-25T05:23:13.710Z,30.04
2018-07-25T05:24:13.641Z,30.38
2018-07-25T05:25:13.678Z,30.70
2018-07-25T05:26:13.646Z,31.01
2018-07-25T05:27:13.657Z,31.27
2018-07-25T05:28:13.662Z,31.49
2018-07-25T05:29:13.668Z,31.71
2018-07-25T05:30:13.737Z,31.99
2018-07-25T05:31:13.673Z,32.17
2018-07-25T05:32:13.679Z,32.35
2018-07-25T05:33:13.685Z,32.54
2018-07-25T05:34:13.690Z,32.72
2018-07-25T05:35:13.702Z,32.83
2018-07-25T05:36:13.707Z,33.07
2018-07-25T05:37:13.713Z,33.15
2018-07-25T05:38:13.798Z,33.52
2018-07-25T05:39:13.721Z,33.63
2018-07-25T05:40:13.728Z,33.87
2018-07-25T05:41:13.738Z,33.96
2018-07-25T05:42:13.744Z,34.14
2018-07-25T05:43:13.748Z,34.36
2018-07-25T05:44:13.754Z,34.60
2018-07-25T05:45:13.762Z,34.50
2018-07-25T05:46:13.768Z,34.72
2018-07-25T05:47:13.780Z,34.93
2018-07-25T05:48:13.788Z,35.00
2018-07-25T05:49:13.795Z,35.13
2018-07-25T05:50:13.801Z,35.18
2018-07-25T05:51:13.804Z,35.43
2018-07-25T05:52:13.812Z,35.50
2018-07-25T05:53:13.820Z,35.66
2018-07-25T05:54:13.827Z,35.99
2018-07-25T05:55:13.839Z,36.08
2018-07-25T05:56:13.849Z,36.25
2018-07-25T05:57:13.856Z,36.30
2018-07-25T05:58:13.859Z,36.11
2018-07-25T05:59:13.875Z,35.89
2018-07-25T06:00:13.881Z,35.99
2018-07-25T06:01:13.889Z,36.13
2018-07-25T06:02:13.897Z,36.37
2018-07-25T06:03:13.991Z,36.57
2018-07-25T06:04:13.937Z,36.90
2018-07-25T06:05:13.968Z,37.15
2018-07-25T06:06:14.004Z,37.38
2018-07-25T06:07:13.944Z,37.49
2018-07-25T06:08:13.953Z,37.56
2018-07-25T06:09:13.968Z,37.45
2018-07-25T06:10:13.969Z,37.66
2018-07-25T06:11:13.974Z,37.66
2018-07-25T06:12:13.984Z,37.28
2018-07-25T06:13:14.065Z,37.18
2018-07-25T06:14:14.025Z,37.28
2018-07-25T06:15:14.013Z,37.53
2018-07-25T06:16:14.025Z,37.85
2018-07-25T06:17:14.034Z,38.09
2018-07-25T06:18:14.045Z,38.28
2018-07-25T06:19:14.059Z,38.45
2018-07-25T06:20:14.068Z,38.58
2018-07-25T06:21:14.080Z,38.77
2018-07-25T06:22:14.089Z,39.13
2018-07-25T06:23:14.095Z,38.89
2018-07-25T06:24:14.106Z,39.06
2018-07-25T06:25:14.119Z,39.31
2018-07-25T06:26:14.132Z,39.43
2018-07-25T06:27:14.144Z,39.69
2018-07-25T06:28:14.156Z,39.92
2018-07-25T06:29:14.161Z,39.87
2018-07-25T06:30:14.173Z,39.87
2018-07-25T06:31:14.243Z,40.04
2018-07-25T06:32:14.200Z,39.84
2018-07-25T06:33:14.212Z,39.94
2018-07-25T06:34:14.224Z,40.10
2018-07-25T06:35:14.231Z,40.13
2018-07-25T06:36:14.243Z,40.39
2018-07-25T06:37:14.255Z,40.21
2018-07-25T06:38:14.267Z,39.73
2018-07-25T06:39:14.283Z,39.76
2018-07-25T06:40:14.296Z,39.07
2018-07-25T06:41:14.309Z,39.09
2018-07-25T06:42:14.323Z,39.12
2018-07-25T06:43:14.358Z,39.22
2018-07-25T06:44:14.342Z,39.51
2018-07-25T06:45:14.359Z,39.96
2018-07-25T06:46:14.370Z,40.33
2018-07-25T06:47:14.378Z,40.41
2018-07-25T06:48:14.393Z,40.49
2018-07-25T06:49:14.405Z,40.29
2018-07-25T06:50:14.417Z,39.91
2018-07-25T06:51:14.433Z,38.78
2018-07-25T06:52:14.447Z,38.31
2018-07-25T06:53:14.460Z,38.62
2018-07-25T06:54:14.473Z,38.72
2018-07-25T06:55:14.481Z,39.00
2018-07-25T06:56:14.496Z,39.31
2018-07-25T06:57:14.520Z,39.38
2018-07-25T06:58:14.522Z,39.68
2018-07-25T06:59:14.539Z,40.10
2018-07-25T07:00:14.554Z,40.63
2018-07-25T07:01:14.562Z,40.83
2018-07-25T07:02:14.577Z,41.26
2018-07-25T07:03:14.593Z,41.69
2018-07-25T07:04:14.606Z,41.66
2018-07-25T07:05:14.621Z,40.66
2018-07-25T07:06:14.633Z,39.97
2018-07-25T07:07:14.642Z,40.02
2018-07-25T07:08:14.660Z,40.34
2018-07-25T07:09:14.670Z,40.83
2018-07-25T07:10:14.683Z,40.91
2018-07-25T07:11:14.702Z,40.26
2018-07-25T07:12:14.805Z,40.51
2018-07-25T07:13:14.732Z,40.60
2018-07-25T07:14:14.745Z,40.98
2018-07-25T07:15:14.800Z,40.54
2018-07-25T07:16:14.768Z,40.68
2018-07-25T07:17:14.788Z,40.98
2018-07-25T07:18:14.801Z,40.83
2018-07-25T07:19:14.811Z,40.44
2018-07-25T07:20:14.826Z,40.44
2018-07-25T07:21:14.840Z,40.86
2018-07-25T07:22:14.857Z,41.05
2018-07-25T07:23:14.872Z,41.54
2018-07-25T07:24:14.889Z,42.00
2018-07-25T07:25:14.903Z,42.48
2018-07-25T07:26:14.917Z,42.91
2018-07-25T07:27:14.927Z,43.33
2018-07-25T07:28:14.943Z,43.68
2018-07-25T07:29:14.961Z,44.16
2018-07-25T07:30:14.973Z,44.21
2018-07-25T07:31:15.010Z,44.21
2018-07-25T07:32:15.009Z,44.49
2018-07-25T07:33:15.019Z,44.69
2018-07-25T07:34:15.034Z,44.97
2018-07-25T07:35:15.054Z,45.08
2018-07-25T07:36:15.071Z,45.04
2018-07-25T07:37:15.118Z,45.03
2018-07-25T07:38:15.101Z,45.03
2018-07-25T07:39:15.112Z,45.23
2018-07-25T07:40:15.131Z,44.94
2018-07-25T07:41:15.145Z,45.05
2018-07-25T07:42:15.161Z,45.27
2018-07-25T07:43:15.183Z,45.19
2018-07-25T07:44:15.226Z,44.61
2018-07-25T07:45:15.216Z,45.00
2018-07-25T07:46:15.232Z,45.26
2018-07-25T07:47:15.244Z,45.65
2018-07-25T07:48:15.260Z,45.65
2018-07-25T07:49:15.283Z,45.80
2018-07-25T07:50:15.297Z,45.61
2018-07-25T07:51:15.309Z,45.94
2018-07-25T07:52:15.326Z,46.19
2018-07-25T07:53:15.343Z,45.53
2018-07-25T07:54:15.358Z,45.10
2018-07-25T07:55:15.382Z,45.50
2018-07-25T07:56:15.396Z,45.37
2018-07-25T07:57:15.418Z,45.63
2018-07-25T07:58:15.433Z,45.98
2018-07-25T07:59:15.445Z,45.87
2018-07-25T08:00:15.460Z,45.91
2018-07-25T08:01:15.477Z,46.04
2018-07-25T08:02:15.501Z,46.19
2018-07-25T08:03:15.515Z,46.29
2018-07-25T08:04:15.534Z,46.30
2018-07-25T08:05:15.547Z,46.56
2018-07-25T08:06:15.563Z,46.56
2018-07-25T08:07:15.585Z,46.33
2018-07-25T08:08:15.603Z,46.42
2018-07-25T08:09:15.622Z,45.80
2018-07-25T08:10:15.639Z,45.68
2018-07-25T08:11:15.651Z,45.64
2018-07-25T08:12:15.675Z,45.70
2018-07-25T08:13:15.707Z,45.79
2018-07-25T08:14:15.709Z,45.10
2018-07-25T08:15:15.729Z,45.41
2018-07-25T08:16:15.751Z,45.04
2018-07-25T08:17:15.766Z,44.47
2018-07-25T08:18:15.782Z,44.47
2018-07-25T08:19:15.795Z,44.42
2018-07-25T08:20:15.817Z,44.47
2018-07-25T08:21:15.856Z,44.73
2018-07-25T08:22:15.853Z,44.69
2018-07-25T08:23:15.867Z,45.22
2018-07-25T08:24:15.885Z,45.46
2018-07-25T08:25:15.903Z,45.80
2018-07-25T08:26:15.920Z,46.27
2018-07-25T08:27:15.944Z,46.67
2018-07-25T08:28:15.963Z,46.91
2018-07-25T08:29:15.984Z,47.18
2018-07-25T08:30:15.999Z,47.44
2018-07-25T08:31:16.012Z,47.67
2018-07-25T08:32:16.031Z,47.90
2018-07-25T08:33:16.050Z,47.86
2018-07-25T08:34:16.069Z,48.05
2018-07-25T08:35:16.091Z,48.26
2018-07-25T08:36:16.116Z,48.53
2018-07-25T08:37:16.127Z,48.31
2018-07-25T08:38:16.145Z,47.25
2018-07-25T08:39:16.169Z,46.90
2018-07-25T08:40:16.190Z,46.67
2018-07-25T08:41:16.267Z,46.75
2018-07-25T08:42:16.229Z,46.84
2018-07-25T08:43:16.249Z,47.01
2018-07-25T08:44:16.266Z,46.02
2018-07-25T08:45:16.283Z,44.73
2018-07-25T08:46:16.303Z,44.53
2018-07-25T08:47:16.327Z,44.85
2018-07-25T08:48:16.346Z,45.01
2018-07-25T08:49:16.365Z,45.57
2018-07-25T08:50:16.384Z,46.24
2018-07-25T08:51:16.400Z,46.34
2018-07-25T08:52:16.423Z,46.40
2018-07-25T08:53:16.446Z,46.89
2018-07-25T08:54:16.464Z,47.37
2018-07-25T08:55:16.479Z,47.66
2018-07-25T08:56:16.499Z,47.64
2018-07-25T08:57:16.521Z,47.90
2018-07-25T08:58:16.540Z,48.26
2018-07-25T08:59:16.565Z,48.70
2018-07-25T09:00:16.585Z,48.93
2018-07-25T09:01:16.605Z,48.74
2018-07-25T09:02:16.624Z,49.05
2018-07-25T09:03:16.641Z,48.92
2018-07-25T09:04:16.662Z,48.94
2018-07-25T09:05:16.683Z,48.58
2018-07-25T09:06:16.707Z,47.27
2018-07-25T09:07:16.729Z,46.37
2018-07-25T09:08:16.749Z,46.11
2018-07-25T09:09:16.767Z,45.85
2018-07-25T09:10:16.786Z,46.24
2018-07-25T09:11:16.812Z,46.65
2018-07-25T09:12:16.833Z,47.27
2018-07-25T09:13:16.853Z,47.44
2018-07-25T09:14:16.876Z,46.08
2018-07-25T09:15:16.890Z,44.32
2018-07-25T09:16:16.910Z,44.08
2018-07-25T09:17:16.932Z,44.08
2018-07-25T09:18:16.952Z,44.69
2018-07-25T09:19:16.975Z,45.26
2018-07-25T09:20:16.996Z,44.78
2018-07-25T09:21:17.017Z,44.43
2018-07-25T09:22:17.036Z,45.05
2018-07-25T09:23:17.051Z,45.58
2018-07-25T09:24:17.070Z,46.42
2018-07-25T09:25:17.135Z,47.03
2018-07-25T09:26:17.114Z,47.66
2018-07-25T09:27:17.130Z,47.74
2018-07-25T09:28:17.149Z,47.47
2018-07-25T09:29:17.169Z,47.69
2018-07-25T09:30:17.188Z,48.00
2018-07-25T09:31:17.213Z,48.50
2018-07-25T09:32:17.237Z,48.94
2018-07-25T09:33:17.254Z,48.72
2018-07-25T09:34:17.396Z,49.01
2018-07-25T09:35:17.292Z,49.18
2018-07-25T09:36:17.310Z,48.94
2018-07-25T09:37:17.332Z,49.32
2018-07-25T09:38:17.352Z,49.09
2018-07-25T09:39:17.377Z,49.46
2018-07-25T09:40:17.400Z,49.63
2018-07-25T09:41:17.417Z,49.88
2018-07-25T09:42:17.436Z,50.04
2018-07-25T09:43:17.464Z,49.68
2018-07-25T09:44:17.486Z,49.42
2018-07-25T09:45:17.508Z,48.86
2018-07-25T09:46:17.535Z,48.65
2018-07-25T09:47:17.545Z,48.73
2018-07-25T09:48:17.568Z,48.97
2018-07-25T09:49:17.588Z,49.46
2018-07-25T09:50:17.631Z,49.84
2018-07-25T09:51:17.647Z,50.21
2018-07-25T09:52:17.656Z,50.21
2018-07-25T09:53:17.678Z,50.19
2018-07-25T09:54:17.705Z,50.02
2018-07-25T09:55:17.715Z,49.92
2018-07-25T09:56:17.753Z,48.81
2018-07-25T09:57:17.765Z,48.79
2018-07-25T09:58:17.787Z,48.74
2018-07-25T09:59:17.803Z,48.94
2018-07-25T10:00:17.825Z,48.92
2018-07-25T10:01:17.847Z,48.81
2018-07-25T10:02:17.871Z,48.36
2018-07-25T10:03:17.895Z,47.56
2018-07-25T10:04:17.917Z,47.94
2018-07-25T10:05:18.006Z,47.91
2018-07-25T10:06:17.962Z,48.05
2018-07-25T10:07:18.056Z,48.50
2018-07-25T10:08:18.019Z,46.29
2018-07-25T10:09:18.031Z,44.00
2018-07-25T10:10:18.044Z,43.84
2018-07-25T10:11:18.070Z,44.53
2018-07-25T10:12:18.092Z,45.32
2018-07-25T10:13:18.112Z,45.99
2018-07-25T10:14:18.130Z,46.42
2018-07-25T10:15:18.222Z,46.90
2018-07-25T10:16:18.179Z,47.22
2018-07-25T10:17:18.209Z,47.74
2018-07-25T10:18:18.223Z,48.07
2018-07-25T10:19:18.258Z,48.86
2018-07-25T10:20:18.262Z,49.16
2018-07-25T10:21:18.328Z,48.82
2018-07-25T10:22:18.306Z,48.96
2018-07-25T10:23:18.333Z,48.48
2018-07-25T10:24:18.356Z,48.50
2018-07-25T10:25:18.378Z,48.33
2018-07-25T10:26:18.398Z,48.10
2018-07-25T10:27:18.498Z,48.19
2018-07-25T10:28:18.439Z,48.60
2018-07-25T10:29:18.466Z,48.04
2018-07-25T10:30:18.489Z,47.56
2018-07-25T10:31:18.507Z,47.47
2018-07-25T10:32:18.529Z,47.62
2018-07-25T10:33:18.553Z,47.66
2018-07-25T10:34:18.573Z,47.59
2018-07-25T10:35:18.628Z,46.93
2018-07-25T10:36:18.628Z,46.49
2018-07-25T10:37:18.646Z,46.40
2018-07-25T10:38:18.667Z,46.18
2018-07-25T10:39:18.683Z,45.97
2018-07-25T10:40:18.706Z,45.07
2018-07-25T10:41:18.732Z,44.23
2018-07-25T10:42:18.747Z,43.78
2018-07-25T10:43:18.773Z,43.78
2018-07-25T10:44:18.797Z,43.89
2018-07-25T10:45:18.889Z,44.10
2018-07-25T10:46:18.831Z,44.64
2018-07-25T10:47:18.854Z,44.53
2018-07-25T10:48:18.874Z,44.92
2018-07-25T10:49:18.896Z,44.73
2018-07-25T10:50:18.914Z,44.82
2018-07-25T10:51:18.929Z,44.58
2018-07-25T10:52:18.949Z,44.98
2018-07-25T10:53:18.970Z,44.98
2018-07-25T10:54:18.988Z,45.23
2018-07-25T10:55:19.012Z,45.57
2018-07-25T10:56:19.032Z,46.17
2018-07-25T10:57:19.052Z,46.02
2018-07-25T10:58:19.070Z,46.08
2018-07-25T10:59:19.085Z,45.72
2018-07-25T11:00:19.106Z,45.32
2018-07-25T11:01:19.132Z,44.94
2018-07-25T11:02:19.151Z,44.37
2018-07-25T11:03:19.166Z,44.46
2018-07-25T11:04:19.185Z,44.94
2018-07-25T11:05:19.207Z,45.23
2018-07-25T11:06:19.223Z,45.04
2018-07-25T11:07:19.248Z,44.70
2018-07-25T11:08:19.267Z,43.13
2018-07-25T11:09:19.281Z,43.26
2018-07-25T11:10:19.298Z,42.68
2018-07-25T11:11:19.322Z,41.95
2018-07-25T11:12:19.340Z,42.09
2018-07-25T11:13:19.361Z,42.23
2018-07-25T11:14:19.377Z,41.14
2018-07-25T11:15:19.391Z,40.71
2018-07-25T11:16:19.505Z,41.28
2018-07-25T11:17:19.434Z,40.92
2018-07-25T11:18:19.450Z,41.13
2018-07-25T11:19:19.465Z,40.94
2018-07-25T11:20:19.485Z,40.78
2018-07-25T11:21:19.501Z,40.73
2018-07-25T11:22:19.517Z,41.23
2018-07-25T11:23:19.542Z,41.38
2018-07-25T11:24:19.557Z,41.74
2018-07-25T11:25:19.575Z,41.28
2018-07-25T11:26:19.593Z,40.66
2018-07-25T11:27:19.609Z,40.33
2018-07-25T11:28:19.623Z,39.92
2018-07-25T11:29:19.644Z,40.07
2018-07-25T11:30:19.657Z,39.46
2018-07-25T11:31:19.680Z,39.22
2018-07-25T11:32:19.701Z,39.12
2018-07-25T11:33:19.707Z,39.13
2018-07-25T11:34:19.725Z,38.98
2018-07-25T11:35:19.744Z,38.90
2018-07-25T11:36:19.761Z,38.90
2018-07-25T11:37:19.774Z,38.82
2018-07-25T11:38:19.790Z,38.78
2018-07-25T11:39:19.799Z,38.79
2018-07-25T11:40:19.814Z,39.02
2018-07-25T11:41:19.833Z,39.06
2018-07-25T11:42:19.843Z,39.07
2018-07-25T11:43:19.864Z,39.12
2018-07-25T11:44:19.875Z,38.78
2018-07-25T11:45:19.890Z,38.67
2018-07-25T11:46:19.902Z,38.63
2018-07-25T11:47:19.911Z,38.72
2018-07-25T11:48:19.924Z,38.60
2018-07-25T11:49:19.943Z,38.55
2018-07-25T11:50:19.961Z,38.74
2018-07-25T11:51:19.962Z,38.82
2018-07-25T11:52:19.975Z,38.92
2018-07-25T11:53:19.988Z,39.02
2018-07-25T11:54:20.000Z,38.97
2018-07-25T11:55:20.101Z,38.34
2018-07-25T11:56:20.028Z,38.40
2018-07-25T11:57:20.040Z,38.37
2018-07-25T11:58:20.051Z,38.34
2018-07-25T11:59:20.059Z,38.56
2018-07-25T12:00:20.071Z,38.81
2018-07-25T12:01:20.143Z,39.00
2018-07-25T12:02:20.092Z,39.06
2018-07-25T12:03:20.110Z,39.25
2018-07-25T12:04:20.121Z,39.13
2018-07-25T12:05:20.128Z,38.67
2018-07-25T12:06:20.138Z,38.25
2018-07-25T12:07:20.198Z,37.72
2018-07-25T12:08:20.169Z,37.59
2018-07-25T12:09:20.176Z,37.63
2018-07-25T12:10:20.185Z,36.69
2018-07-25T12:11:20.193Z,36.59
2018-07-25T12:12:20.203Z,36.60
2018-07-25T12:13:20.214Z,36.83
2018-07-25T12:14:20.227Z,37.05
2018-07-25T12:15:20.239Z,37.27
2018-07-25T12:16:20.250Z,37.60
2018-07-25T12:17:20.261Z,37.73
2018-07-25T12:18:20.270Z,38.02
2018-07-25T12:19:20.275Z,38.34
2018-07-25T12:20:20.285Z,38.49
2018-07-25T12:21:20.341Z,38.56
2018-07-25T12:22:20.310Z,38.70
2018-07-25T12:23:20.315Z,38.68
2018-07-25T12:24:20.325Z,38.72
2018-07-25T12:25:20.335Z,38.82
2018-07-25T12:26:20.348Z,38.77
2018-07-25T12:27:20.360Z,38.86
2018-07-25T12:28:20.370Z,38.67
2018-07-25T12:29:20.393Z,38.70
2018-07-25T12:30:20.391Z,38.59
2018-07-25T12:31:20.395Z,38.60
2018-07-25T12:32:20.405Z,38.52
2018-07-25T12:33:20.416Z,38.50
2018-07-25T12:34:20.424Z,38.34
2018-07-25T12:35:20.439Z,38.10
2018-07-25T12:36:20.449Z,37.90
2018-07-25T12:37:20.456Z,37.81
2018-07-25T12:38:20.464Z,37.91
2018-07-25T12:39:20.479Z,37.75
2018-07-25T12:40:20.488Z,37.73
2018-07-25T12:41:20.500Z,37.78
2018-07-25T12:42:20.509Z,37.85
2018-07-25T12:43:20.514Z,38.06
2018-07-25T12:44:20.523Z,37.95
2018-07-25T12:45:20.534Z,37.65
2018-07-25T12:46:20.543Z,37.28
2018-07-25T12:47:20.560Z,37.11
2018-07-25T12:48:20.596Z,36.84
2018-07-25T12:49:20.576Z,36.69
2018-07-25T12:50:20.587Z,36.75
2018-07-25T12:51:20.591Z,36.71
2018-07-25T12:52:20.599Z,36.62